Time;durP1;ratioP1;P1;durP2;ratioP2;P2;SDS_P1;SDS_P2;PMS_P1;PMS_P2;Temp;Humidity;BMP_temperature;BMP_pressure;BME280_temperature;BME280_humidity;BME280_pressure;Samples;Min_cycle;Max_cycle;Signal;HPM_P1;HPM_P2
2022/12/29 00:02:24;;;;;;;15.82;9.00;;;2.80;99.90;;;;;;5052254;28;20035;-67
2022/12/29 00:04:50;;;;;;;17.23;9.93;;;2.70;99.90;;;;;;5051903;28;20033;-66
2022/12/29 00:07:17;;;;;;;14.38;9.18;;;2.70;99.90;;;;;;5052165;28;20036;-66
2022/12/29 00:09:42;;;;;;;15.50;8.63;;;2.70;99.90;;;;;;5051855;28;20044;-67
2022/12/29 00:12:08;;;;;;;16.00;8.88;;;2.70;99.90;;;;;;5052125;28;20024;-65
2022/12/29 00:17:18;;;;;;;16.50;9.73;;;2.60;99.90;;;;;;5052289;28;20048;-66
2022/12/29 00:36:19;;;;;;;17.85;9.55;;;2.40;99.90;;;;;;5056015;28;20036;-66
2022/12/29 00:44:21;;;;;;;17.98;9.23;;;2.40;99.90;;;;;;5055457;28;20509;-66
2022/12/29 00:46:46;;;;;;;15.43;9.18;;;2.40;99.90;;;;;;5054832;28;20036;-66
2022/12/29 00:49:32;;;;;;;15.70;9.25;;;2.30;99.90;;;;;;5055544;28;20450;-67
2022/12/29 00:51:57;;;;;;;15.02;8.82;;;2.30;99.90;;;;;;5054848;28;20473;-66
2022/12/29 00:54:23;;;;;;;17.00;9.38;;;2.30;99.90;;;;;;5055415;28;20035;-66
2022/12/29 00:56:51;;;;;;;14.50;9.38;;;2.20;99.90;;;;;;5055031;28;20032;-66
2022/12/29 00:59:18;;;;;;;19.10;10.07;;;2.20;99.90;;;;;;5055456;28;20021;-66
2022/12/29 01:01:44;;;;;;;17.45;10.07;;;2.20;99.90;;;;;;5055096;28;20025;-65
2022/12/29 01:04:10;;;;;;;14.93;9.27;;;2.20;99.90;;;;;;5055365;28;20025;-66
2022/12/29 01:06:37;;;;;;;17.55;9.45;;;2.20;99.90;;;;;;5055465;28;20029;-67
2022/12/29 01:11:48;;;;;;;14.77;9.48;;;2.20;99.90;;;;;;5054915;28;20032;-65
2022/12/29 01:14:14;;;;;;;14.77;9.43;;;2.20;99.90;;;;;;5055331;28;20135;-66
2022/12/29 01:16:39;;;;;;;18.80;10.38;;;2.10;99.90;;;;;;5055043;28;20029;-65
2022/12/29 01:19:05;;;;;;;18.65;10.10;;;2.10;99.90;;;;;;5054710;28;20021;-65
2022/12/29 01:21:32;;;;;;;19.08;10.60;;;2.10;99.90;;;;;;5055037;28;20029;-67
2022/12/29 01:23:58;;;;;;;18.10;10.38;;;2.10;99.90;;;;;;5054737;28;20033;-67
2022/12/29 01:26:23;;;;;;;19.50;10.10;;;2.10;99.90;;;;;;5055017;28;20025;-67
2022/12/29 01:28:49;;;;;;;24.23;11.32;;;2.00;99.90;;;;;;5053166;28;20047;-67
2022/12/29 01:31:16;;;;;;;18.15;10.50;;;2.00;99.90;;;;;;5054732;28;20033;-67
2022/12/29 01:33:42;;;;;;;19.35;10.38;;;2.00;99.90;;;;;;5054894;28;20029;-66
2022/12/29 01:36:11;;;;;;;16.45;9.65;;;2.00;99.90;;;;;;5054232;28;20025;-67
2022/12/29 01:38:38;;;;;;;20.38;10.52;;;2.00;99.90;;;;;;5052835;28;20068;-66
2022/12/29 01:41:05;;;;;;;16.98;10.32;;;2.00;99.90;;;;;;5053989;28;20080;-67
2022/12/29 01:43:45;;;;;;;17.38;10.38;;;2.00;99.90;;;;;;5054328;28;20021;-66
2022/12/29 01:46:26;;;;;;;15.95;10.45;;;2.00;99.90;;;;;;5054816;28;20385;-66
2022/12/29 01:49:14;;;;;;;18.73;10.88;;;2.00;99.90;;;;;;5054343;28;20025;-67
2022/12/29 01:51:47;;;;;;;18.48;10.60;;;1.90;99.90;;;;;;5054373;28;20060;-66
2022/12/29 01:54:21;;;;;;;19.25;10.23;;;2.00;99.90;;;;;;5053941;28;20029;-66
2022/12/29 01:56:47;;;;;;;17.38;9.93;;;2.00;99.90;;;;;;5053532;28;20024;-66
2022/12/29 01:59:18;;;;;;;20.90;11.45;;;1.90;99.90;;;;;;5054365;28;20061;-66
2022/12/29 02:01:44;;;;;;;19.08;11.07;;;2.00;99.90;;;;;;5054574;28;20092;-66
2022/12/29 02:04:12;;;;;;;18.17;10.32;;;1.90;99.90;;;;;;5053688;28;20036;-67
2022/12/29 02:07:02;;;;;;;18.27;10.00;;;1.90;99.90;;;;;;5054349;28;20083;-66
2022/12/29 02:09:28;;;;;;;19.00;10.48;;;1.90;99.90;;;;;;5054285;28;20029;-66
2022/12/29 02:11:54;;;;;;;16.83;10.80;;;1.90;99.90;;;;;;5053744;28;20029;-66
2022/12/29 02:14:20;;;;;;;19.48;10.85;;;1.90;99.90;;;;;;5054447;28;20508;-66
2022/12/29 02:17:28;;;;;;;15.70;9.48;;;1.90;99.90;;;;;;5054036;28;20033;-66
2022/12/29 02:20:05;;;;;;;17.90;10.25;;;1.90;99.90;;;;;;5053776;28;20025;-66
2022/12/29 02:22:49;;;;;;;19.90;10.25;;;1.90;99.90;;;;;;5053833;28;20036;-66
2022/12/29 02:25:45;;;;;;;17.42;10.35;;;1.80;99.90;;;;;;5053984;28;20033;-66
2022/12/29 02:28:47;;;;;;;18.58;10.55;;;1.80;99.90;;;;;;5053030;28;20093;-66
2022/12/29 02:31:29;;;;;;;18.50;9.82;;;1.80;99.90;;;;;;5053442;28;20052;-66
2022/12/29 02:34:10;;;;;;;15.65;10.38;;;1.80;99.90;;;;;;5053337;28;20029;-67
2022/12/29 02:36:36;;;;;;;;;;;1.80;99.90;;;;;;5054099;28;20096;-66
2022/12/29 02:39:37;;;;;;;18.00;10.77;;;1.80;99.90;;;;;;5052840;28;19921;-67
2022/12/29 02:42:13;;;;;;;18.58;10.65;;;1.70;99.90;;;;;;5053498;28;20031;-66
2022/12/29 02:45:18;;;;;;;16.40;9.85;;;1.70;99.90;;;;;;5053599;28;20032;-66
2022/12/29 02:48:20;;;;;;;19.73;10.80;;;1.70;99.90;;;;;;5044738;28;20041;-67
2022/12/29 02:51:10;;;;;;;20.15;10.70;;;1.70;99.90;;;;;;5033637;28;20068;-67
2022/12/29 02:56:38;;;;;;;16.27;9.75;;;1.70;99.90;;;;;;5050783;28;20025;-66
2022/12/29 02:59:04;;;;;;;18.20;10.80;;;1.60;99.90;;;;;;5036535;28;20041;-66
2022/12/29 03:02:16;;;;;;;16.52;10.98;;;1.60;99.90;;;;;;5033410;28;20028;-66
2022/12/29 03:04:50;;;;;;;20.48;10.82;;;1.60;99.90;;;;;;5032635;28;20045;-66
2022/12/29 03:07:23;;;;;;;17.35;10.85;;;1.60;99.90;;;;;;5032676;28;20079;-66
2022/12/29 03:10:10;;;;;;;18.77;10.90;;;1.60;99.90;;;;;;5033285;28;20394;-66
2022/12/29 03:16:05;;;;;;;20.50;10.93;;;1.60;99.90;;;;;;5033085;28;20095;-66
2022/12/29 03:19:01;;;;;;;19.27;10.55;;;1.60;99.90;;;;;;5032999;28;20029;-67
2022/12/29 03:24:37;;;;;;;16.98;10.93;;;1.60;99.90;;;;;;5032641;28;20036;-65
2022/12/29 03:27:06;;;;;;;18.73;10.80;;;1.60;99.90;;;;;;5032554;28;20037;-67
2022/12/29 03:29:37;;;;;;;18.15;11.25;;;1.60;99.90;;;;;;5032675;28;20036;-66
2022/12/29 03:32:07;;;;;;;18.98;10.95;;;1.60;99.90;;;;;;5032438;28;20025;-66
2022/12/29 03:34:34;;;;;;;18.67;10.50;;;1.60;99.90;;;;;;5032728;28;20030;-65
2022/12/29 03:37:10;;;;;;;17.52;10.35;;;1.60;99.90;;;;;;5032352;28;20033;-65
2022/12/29 03:39:37;;;;;;;20.42;11.35;;;1.60;99.90;;;;;;5033116;28;20123;-65
2022/12/29 03:42:06;;;;;;;19.05;11.38;;;1.70;99.90;;;;;;5032339;28;20036;-66
2022/12/29 03:44:36;;;;;;;16.23;10.38;;;1.60;99.90;;;;;;5032505;28;20033;-65
2022/12/29 03:47:02;;;;;;;20.67;11.20;;;1.60;99.90;;;;;;5032159;28;20037;-65
2022/12/29 03:49:28;;;;;;;17.73;11.00;;;1.60;99.90;;;;;;5032241;28;20043;-65
2022/12/29 03:51:53;;;;;;;17.02;9.98;;;1.60;99.90;;;;;;5032497;28;20112;-65
2022/12/29 03:54:19;;;;;;;20.08;10.30;;;1.60;99.90;;;;;;5031776;28;20497;-65
2022/12/29 03:56:45;;;;;;;16.23;10.80;;;1.70;99.90;;;;;;5031137;28;20033;-65
2022/12/29 03:59:10;;;;;;;18.58;10.85;;;1.60;99.90;;;;;;5036889;28;20021;-66
2022/12/29 04:01:36;;;;;;;19.55;10.60;;;1.60;99.90;;;;;;5052112;28;20025;-65
2022/12/29 04:04:01;;;;;;;17.00;10.50;;;1.70;99.90;;;;;;5052059;28;20163;-65
2022/12/29 04:06:27;;;;;;;17.70;10.80;;;1.70;99.90;;;;;;5053912;28;20103;-66
2022/12/29 04:08:53;;;;;;;14.90;10.20;;;1.60;99.90;;;;;;5056328;28;20040;-66
2022/12/29 04:11:19;;;;;;;18.10;11.05;;;1.60;99.90;;;;;;5055904;28;20025;-66
2022/12/29 04:13:45;;;;;;;18.42;10.80;;;1.60;99.90;;;;;;5056339;28;20359;-66
2022/12/29 04:16:10;;;;;;;17.40;10.57;;;1.60;99.90;;;;;;5055906;28;20103;-66
2022/12/29 04:18:36;;;;;;;17.83;10.93;;;1.70;99.90;;;;;;5056210;28;20075;-66
2022/12/29 04:21:03;;;;;;;19.05;10.50;;;1.70;99.90;;;;;;5055763;28;20099;-67
2022/12/29 04:23:34;;;;;;;17.13;10.23;;;1.70;99.90;;;;;;5055734;28;20478;-66
2022/12/29 04:25:59;;;;;;;18.63;10.82;;;1.70;99.90;;;;;;5055779;28;20083;-67
2022/12/29 04:28:25;;;;;;;17.55;9.88;;;1.60;99.90;;;;;;5055890;28;20473;-66
2022/12/29 04:30:51;;;;;;;19.48;10.13;;;1.60;99.90;;;;;;5055957;28;20033;-66
2022/12/29 04:33:17;;;;;;;16.42;10.07;;;1.60;99.90;;;;;;5055456;28;20095;-65
2022/12/29 04:35:43;;;;;;;16.63;10.55;;;1.50;99.90;;;;;;5055537;28;20051;-66
2022/12/29 04:38:09;;;;;;;21.42;11.07;;;1.50;99.90;;;;;;5055421;28;20049;-66
2022/12/29 04:40:37;;;;;;;17.23;10.55;;;1.50;99.90;;;;;;5055720;28;20048;-66
2022/12/29 04:43:03;;;;;;;20.15;11.32;;;1.50;99.90;;;;;;5054888;28;20489;-66
2022/12/29 04:45:28;;;;;;;22.73;11.90;;;1.50;99.90;;;;;;5055853;28;20080;-66
2022/12/29 04:47:54;;;;;;;20.20;10.25;;;1.50;99.90;;;;;;5055800;28;20032;-65
2022/12/29 04:50:20;;;;;;;18.77;10.50;;;1.50;99.90;;;;;;5055306;28;20111;-66
2022/12/29 04:52:45;;;;;;;21.67;11.00;;;1.40;99.90;;;;;;5055714;28;20027;-66
2022/12/29 04:55:11;;;;;;;18.70;11.68;;;1.50;99.90;;;;;;5054934;28;20381;-66
2022/12/29 04:57:37;;;;;;;18.98;10.95;;;1.40;99.90;;;;;;5055460;28;20032;-66
2022/12/29 05:00:04;;;;;;;18.30;10.52;;;1.40;99.90;;;;;;5055109;28;20040;-67
2022/12/29 05:02:29;;;;;;;17.63;11.00;;;1.40;99.90;;;;;;5055227;28;20025;-66
2022/12/29 05:04:55;;;;;;;20.00;11.13;;;1.40;99.90;;;;;;5055364;28;20029;-65
2022/12/29 05:07:21;;;;;;;20.58;11.48;;;1.40;99.90;;;;;;5054664;28;20055;-67
2022/12/29 05:09:46;;;;;;;17.60;10.75;;;1.30;99.90;;;;;;5055393;28;20021;-66
2022/12/29 05:12:12;;;;;;;19.27;11.93;;;1.30;99.90;;;;;;5054822;28;20024;-68
2022/12/29 05:14:38;;;;;;;19.48;11.55;;;1.30;99.90;;;;;;5055330;28;20096;-66
2022/12/29 05:17:03;;;;;;;19.35;12.07;;;1.20;99.90;;;;;;5054230;28;20057;-67
2022/12/29 05:19:29;;;;;;;22.40;12.18;;;1.20;99.90;;;;;;5054621;28;20025;-66
2022/12/29 05:21:55;;;;;;;16.83;11.02;;;1.20;99.90;;;;;;5054928;28;20071;-66
2022/12/29 05:24:20;;;;;;;18.02;11.20;;;1.20;99.90;;;;;;5054136;28;20393;-65
2022/12/29 05:26:46;;;;;;;18.60;11.75;;;1.10;99.90;;;;;;5054855;28;20036;-66
2022/12/29 05:29:11;;;;;;;19.13;11.05;;;1.10;99.90;;;;;;5054499;28;20090;-66
2022/12/29 05:31:37;;;;;;;19.42;12.75;;;1.10;99.90;;;;;;5054612;28;20032;-66
2022/12/29 05:34:03;;;;;;;20.67;12.70;;;1.10;99.90;;;;;;5054264;28;20028;-70
2022/12/29 05:36:29;;;;;;;19.73;12.18;;;1.00;99.90;;;;;;5054781;28;20055;-66
2022/12/29 05:38:55;;;;;;;20.65;13.05;;;1.00;99.90;;;;;;5054742;28;20049;-66
2022/12/29 05:41:20;;;;;;;20.45;12.25;;;0.90;99.90;;;;;;5054260;28;20032;-66
2022/12/29 05:43:46;;;;;;;18.38;11.73;;;0.90;99.90;;;;;;5054596;28;20033;-66
2022/12/29 05:46:12;;;;;;;23.85;12.40;;;0.90;99.90;;;;;;5054156;28;20033;-66
2022/12/29 05:48:37;;;;;;;21.58;12.57;;;0.90;99.90;;;;;;5054490;28;20031;-65
2022/12/29 05:51:03;;;;;;;19.13;12.65;;;0.80;99.90;;;;;;5054594;28;20056;-66
2022/12/29 05:53:29;;;;;;;20.42;12.70;;;0.80;99.90;;;;;;5054843;28;20067;-66
2022/12/29 05:55:54;;;;;;;21.00;12.32;;;0.80;99.90;;;;;;5054350;28;20075;-67
2022/12/29 05:58:20;;;;;;;21.23;13.02;;;0.80;99.90;;;;;;5053713;28;20100;-66
2022/12/29 06:00:46;;;;;;;22.50;12.88;;;0.80;99.90;;;;;;5054190;28;20032;-66
2022/12/29 06:03:12;;;;;;;23.05;13.68;;;0.70;99.90;;;;;;5053597;28;20087;-66
2022/12/29 06:05:37;;;;;;;23.15;14.23;;;0.80;99.90;;;;;;5054387;28;20446;-66
2022/12/29 06:08:03;;;;;;;22.58;13.48;;;0.80;99.90;;;;;;5053983;28;20096;-66
2022/12/29 06:10:29;;;;;;;21.50;14.15;;;0.80;99.90;;;;;;5053548;28;20063;-67
2022/12/29 06:12:55;;;;;;;23.75;13.32;;;0.80;99.90;;;;;;5054482;28;20523;-66
2022/12/29 06:15:20;;;;;;;21.50;12.88;;;0.80;99.90;;;;;;5053708;28;20584;-66
2022/12/29 06:17:46;;;;;;;21.35;13.10;;;0.80;99.90;;;;;;5054269;28;20477;-66
2022/12/29 06:20:12;;;;;;;25.98;14.93;;;0.80;99.90;;;;;;5053822;28;20032;-66
2022/12/29 06:22:37;;;;;;;20.58;13.77;;;0.80;99.90;;;;;;5053903;28;20481;-66
2022/12/29 06:25:03;;;;;;;23.52;13.70;;;0.90;99.90;;;;;;5053847;28;20131;-66
2022/12/29 06:27:29;;;;;;;25.02;13.98;;;0.80;99.90;;;;;;5053297;28;20362;-66
2022/12/29 06:29:55;;;;;;;24.38;13.90;;;0.90;99.90;;;;;;5052958;28;20036;-66
2022/12/29 06:32:21;;;;;;;25.52;15.07;;;0.90;99.90;;;;;;5053461;28;20060;-66
2022/12/29 06:34:46;;;;;;;26.02;14.98;;;0.90;99.90;;;;;;5053594;28;20024;-66
2022/12/29 06:37:13;;;;;;;27.50;15.80;;;0.90;99.90;;;;;;5052851;28;20025;-67
2022/12/29 06:39:38;;;;;;;35.50;18.63;;;1.00;99.90;;;;;;5054012;28;20057;-66
2022/12/29 06:42:04;;;;;;;39.83;20.23;;;1.00;99.90;;;;;;5053829;28;20071;-66
2022/12/29 06:44:30;;;;;;;35.88;20.00;;;1.00;99.90;;;;;;5052947;28;20029;-66
2022/12/29 06:46:57;;;;;;;36.88;20.52;;;1.10;99.90;;;;;;5053303;28;20104;-66
2022/12/29 06:49:23;;;;;;;37.72;20.52;;;1.10;99.90;;;;;;5052985;28;20053;-66
2022/12/29 06:51:48;;;;;;;45.38;20.35;;;1.20;99.90;;;;;;5053380;28;20067;-66
2022/12/29 06:54:14;;;;;;;37.50;21.30;;;1.20;99.90;;;;;;5052864;28;20029;-66
2022/12/29 06:56:40;;;;;;;39.72;21.08;;;1.30;99.90;;;;;;5053172;28;20390;-66
2022/12/29 06:59:06;;;;;;;39.20;21.40;;;1.30;99.90;;;;;;5053091;28;20116;-65
2022/12/29 07:01:31;;;;;;;49.20;22.80;;;1.30;99.90;;;;;;5052775;28;20029;-66
2022/12/29 07:03:57;;;;;;;41.90;21.55;;;1.30;99.90;;;;;;5052978;28;20029;-66
2022/12/29 07:06:23;;;;;;;39.90;22.30;;;1.40;99.90;;;;;;5052572;28;20489;-65
2022/12/29 07:08:49;;;;;;;39.88;21.38;;;1.40;99.90;;;;;;5052662;28;20098;-65
2022/12/29 07:11:14;;;;;;;38.60;22.10;;;1.50;99.90;;;;;;5052556;28;20445;-65
2022/12/29 07:13:40;;;;;;;39.72;22.45;;;1.50;99.90;;;;;;5052981;28;20033;-66
2022/12/29 07:16:09;;;;;;;40.65;20.77;;;1.50;99.90;;;;;;5053197;28;20021;-66
2022/12/29 07:18:35;;;;;;;43.08;22.52;;;1.50;99.90;;;;;;5052263;28;20523;-66
2022/12/29 07:21:01;;;;;;;49.60;22.75;;;1.50;99.90;;;;;;5052870;28;20029;-66
2022/12/29 07:23:27;;;;;;;42.88;21.52;;;1.50;99.90;;;;;;5052359;28;20025;-65
2022/12/29 07:26:05;;;;;;;42.67;22.70;;;1.50;99.90;;;;;;5052777;28;20444;-66
2022/12/29 07:28:32;;;;;;;45.25;22.65;;;1.60;99.90;;;;;;5051905;28;20116;-66
2022/12/29 07:30:58;;;;;;;40.55;22.83;;;1.50;99.90;;;;;;5052685;28;20025;-66
2022/12/29 07:33:24;;;;;;;39.88;21.13;;;1.50;99.90;;;;;;5052002;28;20024;-66
2022/12/29 07:35:49;;;;;;;41.95;21.80;;;1.60;99.90;;;;;;5052633;28;20086;-65
2022/12/29 07:38:16;;;;;;;42.03;21.60;;;1.60;99.90;;;;;;5051769;28;20045;-66
2022/12/29 07:40:42;;;;;;;40.05;21.95;;;1.60;99.90;;;;;;5052223;28;20086;-65
2022/12/29 07:43:07;;;;;;;43.97;21.88;;;1.60;99.90;;;;;;5052449;28;20033;-65
2022/12/29 07:45:33;;;;;;;43.58;21.17;;;1.70;99.90;;;;;;5051773;28;20489;-65
2022/12/29 07:47:59;;;;;;;43.75;22.05;;;1.70;99.90;;;;;;5052265;28;20033;-65
2022/12/29 07:50:24;;;;;;;40.65;20.48;;;1.70;99.90;;;;;;5051843;28;20025;-66
2022/12/29 07:52:50;;;;;;;40.72;20.38;;;1.70;99.90;;;;;;5052465;28;20038;-65
2022/12/29 07:55:16;;;;;;;45.38;22.38;;;1.80;99.90;;;;;;5051264;28;20055;-65
2022/12/29 07:57:42;;;;;;;38.50;20.17;;;1.70;99.90;;;;;;5052461;28;20025;-65
2022/12/29 08:00:09;;;;;;;41.50;20.13;;;1.80;99.90;;;;;;5052113;28;20029;-65
2022/12/29 08:02:35;;;;;;;44.53;21.02;;;1.80;99.90;;;;;;5052056;28;20107;-65
2022/12/29 08:05:01;;;;;;;51.28;21.20;;;1.80;99.90;;;;;;5052166;28;20039;-65
2022/12/29 08:07:27;;;;;;;48.50;21.13;;;1.80;99.90;;;;;;5051725;28;20032;-67
2022/12/29 08:09:53;;;;;;;46.05;21.50;;;1.80;99.90;;;;;;5052410;28;20021;-66
2022/12/29 08:12:18;;;;;;;45.70;21.58;;;1.70;99.90;;;;;;5052076;28;20112;-65
2022/12/29 08:14:44;;;;;;;44.67;23.60;;;1.80;99.90;;;;;;5052271;28;20025;-65
2022/12/29 08:17:10;;;;;;;49.45;22.50;;;1.80;99.90;;;;;;5052297;28;20029;-66
2022/12/29 08:19:37;;;;;;;48.85;22.60;;;1.70;99.90;;;;;;5051858;28;20036;-65
2022/12/29 08:22:02;;;;;;;48.50;23.27;;;1.70;99.90;;;;;;5052184;28;20405;-66
2022/12/29 08:24:28;;;;;;;42.17;21.33;;;1.70;99.90;;;;;;5051428;28;20035;-65
2022/12/29 08:26:54;;;;;;;56.22;22.38;;;1.80;99.90;;;;;;5052144;28;20094;-66
2022/12/29 08:29:21;;;;;;;47.42;20.55;;;1.80;99.90;;;;;;5051557;28;20385;-65
2022/12/29 08:31:47;;;;;;;50.63;20.23;;;1.70;99.90;;;;;;5052357;28;20521;-65
2022/12/29 08:34:13;;;;;;;39.50;20.52;;;1.70;99.90;;;;;;5052078;28;20029;-67
2022/12/29 08:36:38;;;;;;;59.50;21.13;;;1.70;99.90;;;;;;5051478;28;20362;-65
2022/12/29 08:39:04;;;;;;;54.88;22.05;;;1.70;99.90;;;;;;5052263;28;20060;-66
2022/12/29 08:41:30;;;;;;;56.03;22.42;;;1.70;99.90;;;;;;5051663;28;20100;-66
2022/12/29 08:43:57;;;;;;;67.72;21.02;;;1.70;99.90;;;;;;5051567;28;20037;-66
2022/12/29 08:46:22;;;;;;;64.65;23.05;;;1.70;99.90;;;;;;5050616;28;20029;-66
2022/12/29 08:48:48;;;;;;;48.20;23.85;;;1.70;99.90;;;;;;5051332;28;20491;-65
2022/12/29 08:51:14;;;;;;;64.90;24.40;;;1.70;99.90;;;;;;5051994;28;20088;-65
2022/12/29 08:53:39;;;;;;;57.83;24.50;;;1.70;99.90;;;;;;5053627;28;20420;-65
2022/12/29 08:56:06;;;;;;;70.43;23.10;;;1.70;99.90;;;;;;5055602;28;20017;-65
2022/12/29 08:58:32;;;;;;;43.47;22.73;;;1.70;99.90;;;;;;5055221;28;20438;-66
2022/12/29 09:00:58;;;;;;;48.80;23.13;;;1.70;99.90;;;;;;5055665;28;20090;-66
2022/12/29 09:03:24;;;;;;;44.85;21.85;;;1.70;99.90;;;;;;5055086;28;20473;-66
2022/12/29 09:05:55;;;;;;;71.95;23.35;;;1.70;99.90;;;;;;5055489;28;20404;-66
2022/12/29 09:08:21;;;;;;;71.32;24.40;;;1.70;99.90;;;;;;5054962;28;20071;-67
2022/12/29 09:10:47;;;;;;;53.42;23.02;;;1.80;99.90;;;;;;5055235;28;20044;-66
2022/12/29 09:13:13;;;;;;;54.63;24.10;;;1.80;99.90;;;;;;5055042;28;20028;-66
2022/12/29 09:15:39;;;;;;;78.32;23.35;;;1.80;99.90;;;;;;5054525;28;20053;-66
2022/12/29 09:18:06;;;;;;;82.80;22.73;;;1.80;99.90;;;;;;5054927;28;20112;-65
2022/12/29 09:20:31;;;;;;;53.22;22.35;;;1.80;99.90;;;;;;5055055;28;20029;-67
2022/12/29 09:22:57;;;;;;;47.22;21.13;;;1.70;99.90;;;;;;5055092;28;20025;-65
2022/12/29 09:25:24;;;;;;;43.05;21.30;;;1.60;99.90;;;;;;5054439;28;20389;-66
2022/12/29 09:27:52;;;;;;;42.53;20.98;;;1.60;99.90;;;;;;5054937;28;20423;-66
2022/12/29 09:30:19;;;;;;;47.95;22.38;;;1.50;99.90;;;;;;5054745;28;20415;-66
2022/12/29 09:32:45;;;;;;;46.33;22.30;;;1.50;99.90;;;;;;5054619;28;20024;-66
2022/12/29 09:35:10;;;;;;;66.32;20.48;;;1.50;99.90;;;;;;5054990;28;20477;-66
2022/12/29 09:37:36;;;;;;;46.75;22.70;;;1.50;99.90;;;;;;5054359;28;20045;-66
2022/12/29 09:40:02;;;;;;;56.10;23.13;;;1.50;99.90;;;;;;5054598;28;20039;-66
2022/12/29 09:42:31;;;;;;;78.45;23.67;;;1.40;99.90;;;;;;5054364;28;20029;-66
2022/12/29 09:45:16;;;;;;;44.53;22.65;;;1.50;99.90;;;;;;5054168;28;20036;-66
2022/12/29 09:47:44;;;;;;;47.78;24.42;;;1.50;99.90;;;;;;5054099;28;20373;-66
2022/12/29 09:50:27;;;;;;;75.75;21.70;;;1.50;99.90;;;;;;5054616;28;20119;-66
2022/12/29 09:53:03;;;;;;;50.08;23.05;;;1.50;99.90;;;;;;5054854;28;20029;-66
2022/12/29 09:55:42;;;;;;;48.55;23.35;;;1.50;99.90;;;;;;5053852;28;20466;-66
2022/12/29 09:58:17;;;;;;;68.03;23.88;;;1.60;99.90;;;;;;5054857;28;20021;-66
2022/12/29 10:01:06;;;;;;;56.17;24.85;;;1.60;99.90;;;;;;5053732;28;20113;-65
2022/12/29 10:03:54;;;;;;;51.30;22.95;;;1.60;99.90;;;;;;5053692;28;20025;-66
2022/12/29 10:06:41;;;;;;;67.50;24.73;;;1.50;99.90;;;;;;5054327;28;20136;-65
2022/12/29 10:09:30;;;;;;;76.35;29.42;;;1.60;99.90;;;;;;5054217;28;20021;-67
2022/12/29 10:12:06;;;;;;;76.18;25.67;;;1.60;99.90;;;;;;5054653;28;20026;-67
2022/12/29 10:15:08;;;;;;;107.75;24.05;;;1.60;99.90;;;;;;5053891;28;20039;-65
2022/12/29 10:17:52;;;;;;;115.72;25.05;;;1.50;99.90;;;;;;5052430;28;20373;-66
2022/12/29 10:20:38;;;;;;;92.90;25.00;;;1.50;99.90;;;;;;5053994;28;20028;-65
2022/12/29 10:23:15;;;;;;;99.47;23.80;;;1.50;99.90;;;;;;5053893;28;20112;-65
2022/12/29 10:25:43;;;;;;;90.00;25.58;;;1.50;99.90;;;;;;5053509;28;20037;-66
2022/12/29 10:28:32;;;;;;;88.03;25.92;;;1.50;99.90;;;;;;5053862;28;20025;-66
2022/12/29 10:31:01;;;;;;;95.72;24.20;;;1.50;99.90;;;;;;5048213;28;20047;-66
2022/12/29 10:33:35;;;;;;;89.20;26.42;;;1.50;99.90;;;;;;5053102;28;20048;-67
2022/12/29 10:36:19;;;;;;;74.80;25.63;;;1.50;99.90;;;;;;5053811;28;20477;-66
2022/12/29 10:39:10;;;;;;;63.00;25.40;;;1.60;99.90;;;;;;5052865;28;20044;-66
2022/12/29 10:41:46;;;;;;;48.38;25.17;;;1.60;99.90;;;;;;5053197;28;20490;-66
2022/12/29 10:44:16;;;;;;;56.47;27.15;;;1.60;99.90;;;;;;5053495;28;20032;-66
2022/12/29 10:46:42;;;;;;;53.20;26.05;;;1.70;99.90;;;;;;5053083;28;20033;-66
2022/12/29 10:49:16;;;;;;;61.55;26.60;;;1.70;99.90;;;;;;5053517;28;20532;-66
2022/12/29 10:51:46;;;;;;;55.65;25.80;;;1.70;99.90;;;;;;5053346;28;20311;-66
2022/12/29 10:54:21;;;;;;;55.85;25.85;;;1.80;99.90;;;;;;5053520;28;20036;-66
2022/12/29 10:56:54;;;;;;;64.38;26.45;;;1.80;99.90;;;;;;5053170;28;20037;-66
2022/12/29 10:59:25;;;;;;;55.78;26.77;;;1.80;99.90;;;;;;5052991;28;20031;-66
2022/12/29 11:02:06;;;;;;;;;;;1.80;99.90;;;;;;5053967;28;20117;-66
2022/12/29 11:05:30;;;;;;;86.85;27.83;;;1.80;99.90;;;;;;5052885;28;19999;-66
2022/12/29 11:08:01;;;;;;;78.32;26.20;;;1.90;99.90;;;;;;5025238;28;20054;-67
2022/12/29 11:10:35;;;;;;;59.85;28.02;;;1.80;99.90;;;;;;5052387;28;20351;-69
2022/12/29 11:13:04;;;;;;;112.40;30.08;;;1.90;99.90;;;;;;5053103;28;20180;-67
2022/12/29 11:15:49;;;;;;;59.08;28.95;;;1.80;99.90;;;;;;5052026;28;20032;-66
2022/12/29 11:18:26;;;;;;;67.80;29.33;;;1.90;99.90;;;;;;5052878;28;20484;-66
2022/12/29 11:21:01;;;;;;;87.22;29.85;;;1.80;99.90;;;;;;5052804;28;20025;-66
2022/12/29 11:23:33;;;;;;;69.43;30.50;;;1.90;99.90;;;;;;5053088;28;20422;-66
2022/12/29 11:26:29;;;;;;;60.47;29.20;;;1.90;99.90;;;;;;5052932;28;20488;-65
2022/12/29 11:29:13;;;;;;;67.30;30.75;;;1.90;99.90;;;;;;5048347;28;20474;-65
2022/12/29 11:31:45;;;;;;;59.05;31.80;;;1.90;99.90;;;;;;5052425;28;20104;-66
2022/12/29 11:34:17;;;;;;;;;;;2.00;99.90;;;;;;5053290;28;20189;-65
2022/12/29 11:36:43;;;;;;;58.97;30.52;;;2.00;99.90;;;;;;5052308;28;20011;-65
2022/12/29 11:39:27;;;;;;;56.28;29.75;;;2.00;99.90;;;;;;5052400;28;20137;-67
2022/12/29 11:41:53;;;;;;;62.28;31.63;;;2.00;99.90;;;;;;5051548;28;20021;-67
2022/12/29 11:44:19;;;;;;;54.05;29.73;;;2.00;99.90;;;;;;5050395;28;20116;-67
2022/12/29 11:46:50;;;;;;;68.60;31.73;;;2.10;99.90;;;;;;5052071;28;20419;-67
2022/12/29 11:49:26;;;;;;;57.90;31.65;;;2.10;99.90;;;;;;5052280;28;20462;-67
2022/12/29 11:51:56;;;;;;;63.53;31.55;;;2.10;99.90;;;;;;5052284;28;20029;-67
2022/12/29 11:54:31;;;;;;;61.03;31.75;;;2.10;99.90;;;;;;5052683;28;20025;-66
2022/12/29 11:56:58;;;;;;;58.35;30.35;;;2.20;99.90;;;;;;5052457;28;20029;-66
2022/12/29 11:59:27;;;;;;;53.92;29.42;;;2.20;99.90;;;;;;5052503;28;20547;-66
2022/12/29 12:01:54;;;;;;;52.30;28.75;;;2.30;99.90;;;;;;5052017;28;20437;-66
2022/12/29 12:04:26;;;;;;;59.30;30.70;;;2.30;99.90;;;;;;5052145;28;20112;-65
2022/12/29 12:07:12;;;;;;;51.35;29.48;;;2.30;99.90;;;;;;5052161;28;20044;-66
2022/12/29 12:09:57;;;;;;;61.15;30.23;;;2.30;99.90;;;;;;5052024;28;20029;-66
2022/12/29 12:12:22;;;;;;;60.35;30.08;;;2.30;99.90;;;;;;5052400;28;20043;-66
2022/12/29 12:14:59;;;;;;;58.67;31.67;;;2.30;99.90;;;;;;5052018;28;20454;-65
2022/12/29 12:17:37;;;;;;;59.63;31.13;;;2.30;99.90;;;;;;5052376;28;20033;-66
2022/12/29 12:20:33;;;;;;;58.85;30.30;;;2.40;99.90;;;;;;5052049;28;20362;-66
2022/12/29 12:23:22;;;;;;;59.78;31.50;;;2.40;99.90;;;;;;5052478;28;20029;-67
2022/12/29 12:26:34;;;;;;;59.55;31.17;;;2.40;99.90;;;;;;5051765;28;20033;-66
2022/12/29 12:29:09;;;;;;;57.22;30.27;;;2.50;99.90;;;;;;5053600;28;20033;-65
2022/12/29 12:31:54;;;;;;;58.88;31.13;;;2.50;99.90;;;;;;5055366;28;20116;-66
2022/12/29 12:34:31;;;;;;;50.67;29.83;;;2.60;99.90;;;;;;5055819;28;20032;-66
2022/12/29 12:37:15;;;;;;;56.17;30.30;;;2.60;99.90;;;;;;5055456;28;20025;-65
2022/12/29 12:39:52;;;;;;;57.42;30.63;;;2.60;99.90;;;;;;5054549;28;20049;-65
2022/12/29 12:42:51;;;;;;;61.75;29.85;;;2.60;99.90;;;;;;5055771;28;20025;-65
2022/12/29 12:45:56;;;;;;;48.83;28.17;;;2.70;99.90;;;;;;5055736;28;20033;-65
2022/12/29 12:49:07;;;;;;;55.60;30.33;;;2.80;99.90;;;;;;5055927;28;20044;-66
2022/12/29 12:51:38;;;;;;;53.17;29.77;;;2.90;99.90;;;;;;5039531;28;20102;-66
2022/12/29 12:54:14;;;;;;;56.70;30.40;;;3.00;99.90;;;;;;5055896;28;20037;-67
2022/12/29 12:57:05;;;;;;;57.92;31.60;;;3.00;99.90;;;;;;5055107;28;20106;-67
2022/12/29 12:59:49;;;;;;;53.42;30.48;;;3.10;99.90;;;;;;5055561;28;20103;-67
2022/12/29 13:02:46;;;;;;;53.15;32.10;;;3.10;99.90;;;;;;5055487;28;20083;-66
2022/12/29 13:05:26;;;;;;;53.83;30.10;;;3.20;99.90;;;;;;5054060;28;20033;-66
2022/12/29 13:08:23;;;;;;;51.92;30.02;;;3.20;99.90;;;;;;5054607;28;20120;-65
2022/12/29 13:11:16;;;;;;;53.47;29.58;;;3.20;99.90;;;;;;5035013;28;20040;-66
2022/12/29 13:14:17;;;;;;;56.35;31.77;;;3.30;99.90;;;;;;5034756;28;20155;-66
2022/12/29 13:16:54;;;;;;;56.70;32.05;;;3.30;99.90;;;;;;5034952;28;20029;-66
2022/12/29 13:19:45;;;;;;;54.85;29.25;;;3.30;99.90;;;;;;5035477;28;20105;-66
2022/12/29 13:22:33;;;;;;;52.88;29.60;;;3.30;99.90;;;;;;5035368;28;20466;-66
2022/12/29 13:25:20;;;;;;;49.38;29.38;;;3.30;99.90;;;;;;5034574;28;20064;-65
2022/12/29 13:28:00;;;;;;;55.22;31.48;;;3.30;99.90;;;;;;5034807;28;20040;-67
2022/12/29 13:30:45;;;;;;;51.20;29.55;;;3.30;99.90;;;;;;5034902;28;20025;-67
2022/12/29 13:33:14;;;;;;;55.72;29.95;;;3.30;99.90;;;;;;5034772;28;20367;-67
2022/12/29 13:35:58;;;;;;;52.65;29.00;;;3.30;99.90;;;;;;5034433;28;20116;-67
2022/12/29 13:38:23;;;;;;;54.17;30.70;;;3.40;99.90;;;;;;5033905;28;20045;-66
2022/12/29 13:41:00;;;;;;;55.35;31.60;;;3.30;99.90;;;;;;5033226;28;20036;-67